createdAt,value
2023-07-21T00:02:03.271Z,18.99
2023-07-21T00:04:50.044Z,18.63
2023-07-21T00:07:38.309Z,19.00
2023-07-21T00:10:25.644Z,18.70
2023-07-21T00:13:12.814Z,19.01
2023-07-21T00:15:59.527Z,18.10
2023-07-21T00:18:47.919Z,18.23
2023-07-21T00:21:35.840Z,18.37
2023-07-21T00:24:23.050Z,18.38
2023-07-21T00:27:10.211Z,18.70
2023-07-21T00:29:57.522Z,18.66
2023-07-21T00:32:44.680Z,18.60
2023-07-21T00:35:34.420Z,18.63
2023-07-21T00:38:22.653Z,18.93
2023-07-21T00:41:09.473Z,18.73
2023-07-21T00:43:56.264Z,19.06
2023-07-21T00:46:43.208Z,18.75
2023-07-21T00:49:33.258Z,18.37
2023-07-21T00:52:20.649Z,18.29
2023-07-21T00:55:08.914Z,18.28
2023-07-21T00:57:56.009Z,18.60
2023-07-21T01:00:43.160Z,18.91
2023-07-21T01:03:31.959Z,18.71
2023-07-21T01:06:18.986Z,18.35
2023-07-21T01:09:08.609Z,18.51
2023-07-21T01:11:56.589Z,18.92
2023-07-21T01:14:44.345Z,18.94
2023-07-21T01:17:31.696Z,19.18
2023-07-21T01:20:24.084Z,19.25
2023-07-21T01:23:50.528Z,19.00
2023-07-21T01:26:40.449Z,18.99
2023-07-21T01:29:29.816Z,18.94
2023-07-21T01:32:22.308Z,19.07
2023-07-21T01:35:12.770Z,18.08
2023-07-21T01:38:00.916Z,18.81
2023-07-21T01:40:48.473Z,18.60
2023-07-21T01:43:36.318Z,19.13
2023-07-21T01:46:23.757Z,19.09
2023-07-21T01:49:11.019Z,19.16
2023-07-21T01:51:59.056Z,18.68
2023-07-21T01:54:51.205Z,18.90
2023-07-21T01:57:41.770Z,18.83
2023-07-21T02:00:48.090Z,19.08
2023-07-21T02:03:39.277Z,19.20
2023-07-21T02:06:26.370Z,19.28
2023-07-21T02:09:13.562Z,18.99
2023-07-21T02:12:00.534Z,19.13
2023-07-21T02:14:47.322Z,17.83
2023-07-21T02:17:37.465Z,17.31
2023-07-21T02:20:24.325Z,16.50
2023-07-21T02:23:11.506Z,17.68
2023-07-21T02:25:59.668Z,18.39
2023-07-21T02:28:46.446Z,18.75
2023-07-21T02:31:33.306Z,18.67
2023-07-21T02:34:20.794Z,19.21
2023-07-21T02:37:08.566Z,19.07
2023-07-21T02:39:55.450Z,17.65
2023-07-21T02:42:42.478Z,17.55
2023-07-21T02:45:29.781Z,17.09
2023-07-21T02:48:17.969Z,17.39
2023-07-21T02:51:04.817Z,17.74
2023-07-21T02:53:53.420Z,17.31
2023-07-21T02:56:40.702Z,17.55
2023-07-21T02:59:28.860Z,16.96
2023-07-21T03:02:16.204Z,18.32
2023-07-21T03:05:05.390Z,18.43
2023-07-21T03:07:52.271Z,18.16
2023-07-21T03:10:39.140Z,18.53
2023-07-21T03:13:27.306Z,18.43
2023-07-21T03:16:14.689Z,18.61
2023-07-21T03:19:01.767Z,18.45
2023-07-21T03:21:50.514Z,18.57
2023-07-21T03:24:41.341Z,18.01
2023-07-21T03:27:28.364Z,17.98
2023-07-21T03:30:16.271Z,17.90
2023-07-21T03:33:03.341Z,16.64
2023-07-21T03:35:57.611Z,16.78
2023-07-21T03:38:45.015Z,16.82
2023-07-21T03:41:32.057Z,17.64
2023-07-21T03:44:19.377Z,17.54
2023-07-21T03:47:06.424Z,17.39
2023-07-21T03:49:53.566Z,17.38
2023-07-21T03:52:42.339Z,17.11
2023-07-21T03:55:29.575Z,16.80
2023-07-21T03:58:16.690Z,17.13
2023-07-21T04:01:04.088Z,17.23
2023-07-21T04:03:52.830Z,16.90
2023-07-21T04:06:40.460Z,15.90
2023-07-21T04:09:27.295Z,17.12
2023-07-21T04:12:14.637Z,17.31
2023-07-21T04:15:01.423Z,17.43
2023-07-21T04:17:49.210Z,17.36
2023-07-21T04:20:36.698Z,16.92
2023-07-21T04:23:23.728Z,16.99
2023-07-21T04:26:13.166Z,17.21
2023-07-21T04:29:00.175Z,17.34
2023-07-21T04:31:47.665Z,17.94
2023-07-21T04:34:34.539Z,16.94
2023-07-21T04:37:22.013Z,16.68
2023-07-21T04:40:09.183Z,17.10
2023-07-21T04:42:56.412Z,17.11
2023-07-21T04:45:44.260Z,17.04
2023-07-21T04:48:31.120Z,16.87
2023-07-21T04:51:17.912Z,17.08
2023-07-21T04:54:04.709Z,16.75
2023-07-21T04:56:53.420Z,17.39
2023-07-21T04:59:41.270Z,17.47
2023-07-21T05:02:30.434Z,17.35
2023-07-21T05:05:17.944Z,17.54
2023-07-21T05:08:05.588Z,17.04
2023-07-21T05:10:54.542Z,17.33
2023-07-21T05:13:41.819Z,17.73
2023-07-21T05:16:29.641Z,18.05
2023-07-21T05:19:17.058Z,17.29
2023-07-21T05:22:05.036Z,17.31
2023-07-21T05:24:52.851Z,17.42
2023-07-21T05:27:40.244Z,17.54
2023-07-21T05:30:26.969Z,17.78
2023-07-21T05:33:14.284Z,17.25
2023-07-21T05:36:07.093Z,16.97
2023-07-21T05:38:54.652Z,17.44
2023-07-21T05:41:41.408Z,17.79
2023-07-21T05:44:28.228Z,17.70
2023-07-21T05:47:14.987Z,16.96
2023-07-21T05:50:02.606Z,17.08
2023-07-21T05:52:52.738Z,17.74
2023-07-21T05:55:43.242Z,17.18
2023-07-21T05:58:30.363Z,16.74
2023-07-21T06:01:17.786Z,16.53
2023-07-21T06:04:07.131Z,16.78
2023-07-21T06:06:58.072Z,16.77
2023-07-21T06:09:45.488Z,17.10
2023-07-21T06:12:32.276Z,17.22
2023-07-21T06:15:19.313Z,16.78
2023-07-21T06:18:06.771Z,16.66
2023-07-21T06:20:53.938Z,16.47
2023-07-21T06:23:40.714Z,16.56
2023-07-21T06:26:28.007Z,16.78
2023-07-21T06:29:15.565Z,16.62
2023-07-21T06:32:02.605Z,16.79
2023-07-21T06:34:49.994Z,16.86
2023-07-21T06:37:39.254Z,16.83
2023-07-21T06:40:26.303Z,16.94
2023-07-21T06:43:15.130Z,16.92
2023-07-21T06:46:04.253Z,16.74
2023-07-21T06:48:51.248Z,16.96
2023-07-21T06:51:38.530Z,17.09
2023-07-21T06:54:25.705Z,17.08
2023-07-21T06:57:12.716Z,17.10
2023-07-21T07:00:00.089Z,17.34
2023-07-21T07:02:50.488Z,17.49
2023-07-21T07:05:37.922Z,17.43
2023-07-21T07:08:24.985Z,17.55
2023-07-21T07:11:13.742Z,17.66
2023-07-21T07:14:00.493Z,17.97
2023-07-21T07:16:47.314Z,17.86
2023-07-21T07:19:34.117Z,18.01
2023-07-21T07:22:21.404Z,18.08
2023-07-21T07:25:08.794Z,18.23
2023-07-21T07:27:56.323Z,18.28
2023-07-21T07:30:43.428Z,18.34
2023-07-21T07:33:30.826Z,18.50
2023-07-21T07:36:18.129Z,18.61
2023-07-21T07:39:06.296Z,18.67
2023-07-21T07:41:55.893Z,18.96
2023-07-21T07:44:43.409Z,19.01
2023-07-21T07:47:30.632Z,19.12
2023-07-21T07:50:17.475Z,19.32
2023-07-21T07:53:04.463Z,19.56
2023-07-21T07:55:52.286Z,19.33
2023-07-21T07:58:39.913Z,19.45
2023-07-21T08:01:27.890Z,19.88
2023-07-21T08:04:15.631Z,19.80
2023-07-21T08:07:02.779Z,19.95
2023-07-21T08:09:50.174Z,20.05
2023-07-21T08:12:36.985Z,20.36
2023-07-21T08:15:24.749Z,20.63
2023-07-21T08:18:13.275Z,20.58
2023-07-21T08:21:00.142Z,20.44
2023-07-21T08:23:47.895Z,20.77
2023-07-21T08:26:34.922Z,20.93
2023-07-21T08:29:22.278Z,20.77
2023-07-21T08:32:09.376Z,20.48
2023-07-21T08:34:56.907Z,20.58
2023-07-21T08:37:43.969Z,20.77
2023-07-21T08:40:32.023Z,21.04
2023-07-21T08:43:19.111Z,21.07
2023-07-21T08:46:10.660Z,21.37
2023-07-21T08:48:58.894Z,21.48
2023-07-21T08:51:47.115Z,21.82
2023-07-21T08:54:34.406Z,22.14
2023-07-21T08:57:21.524Z,22.10
2023-07-21T09:00:11.778Z,22.36
2023-07-21T09:03:01.399Z,22.46
2023-07-21T09:05:51.592Z,23.03
2023-07-21T09:08:38.765Z,23.30
2023-07-21T09:11:26.813Z,23.25
2023-07-21T09:14:13.847Z,23.21
2023-07-21T09:17:00.905Z,23.14
2023-07-21T09:19:47.731Z,22.33
2023-07-21T09:22:34.830Z,22.83
2023-07-21T09:25:23.243Z,22.75
2023-07-21T09:28:10.349Z,22.89
2023-07-21T09:30:57.140Z,23.06
2023-07-21T09:33:47.813Z,23.40
2023-07-21T09:36:35.188Z,23.46
2023-07-21T09:39:22.039Z,22.86
2023-07-21T09:42:12.915Z,22.38
2023-07-21T09:44:59.992Z,22.04
2023-07-21T09:47:48.928Z,21.64
2023-07-21T09:50:36.768Z,21.69
2023-07-21T09:53:27.379Z,21.27
2023-07-21T09:56:16.516Z,21.16
2023-07-21T09:59:06.039Z,21.23
2023-07-21T10:01:53.676Z,21.16
2023-07-21T10:04:41.220Z,21.40
2023-07-21T10:07:29.184Z,21.60
2023-07-21T10:10:17.559Z,21.64
2023-07-21T10:13:06.601Z,21.45
2023-07-21T10:15:54.557Z,21.34
2023-07-21T10:19:02.074Z,21.21
2023-07-21T10:21:51.015Z,21.30
2023-07-21T10:24:46.353Z,21.32
2023-07-21T10:27:33.435Z,21.21
2023-07-21T10:30:22.327Z,21.86
2023-07-21T10:33:18.862Z,21.94
2023-07-21T10:36:15.177Z,21.80
2023-07-21T10:39:02.202Z,21.61
2023-07-21T10:42:01.446Z,21.72
2023-07-21T10:44:49.730Z,21.67
2023-07-21T10:47:37.064Z,21.64
2023-07-21T10:50:24.177Z,21.44
2023-07-21T10:53:13.910Z,21.53
2023-07-21T10:56:08.719Z,21.70
2023-07-21T10:58:56.807Z,21.98
2023-07-21T11:01:50.618Z,21.85
2023-07-21T11:04:40.567Z,22.06
2023-07-21T11:07:29.665Z,22.20
2023-07-21T11:10:16.975Z,22.24
2023-07-21T11:13:04.092Z,22.06
2023-07-21T11:16:01.958Z,22.12
2023-07-21T11:18:50.571Z,21.87
2023-07-21T11:21:40.004Z,21.65
2023-07-21T11:24:31.460Z,21.47
2023-07-21T11:27:18.684Z,21.34
2023-07-21T11:30:08.786Z,21.40
2023-07-21T11:33:12.072Z,21.34
2023-07-21T11:35:59.796Z,21.39
2023-07-21T11:39:06.177Z,21.22
2023-07-21T11:41:55.070Z,21.13
2023-07-21T11:44:42.819Z,21.07
2023-07-21T11:47:31.233Z,20.70
2023-07-21T11:50:19.880Z,20.57
2023-07-21T11:53:08.229Z,20.34
2023-07-21T11:55:56.091Z,20.18
2023-07-21T11:58:43.409Z,20.31
2023-07-21T12:01:33.214Z,20.02
2023-07-21T12:04:21.742Z,19.94
2023-07-21T12:07:09.586Z,20.16
2023-07-21T12:09:56.755Z,20.22
2023-07-21T12:12:43.534Z,20.12
2023-07-21T12:15:31.187Z,20.33
2023-07-21T12:18:18.552Z,20.53
2023-07-21T12:21:09.682Z,21.03
2023-07-21T12:23:57.275Z,21.19
2023-07-21T12:26:44.735Z,21.38
2023-07-21T12:29:44.828Z,21.77
2023-07-21T12:32:32.423Z,21.87
2023-07-21T12:35:19.979Z,21.37
2023-07-21T12:38:06.893Z,21.81
2023-07-21T12:40:53.788Z,21.96
2023-07-21T12:43:40.934Z,22.01
2023-07-21T12:46:28.899Z,21.93
2023-07-21T12:49:16.172Z,22.07
2023-07-21T12:52:03.289Z,22.25
2023-07-21T12:54:50.309Z,22.28
2023-07-21T12:57:37.722Z,22.61
2023-07-21T13:00:24.761Z,22.83
2023-07-21T13:03:11.786Z,22.99
2023-07-21T13:05:59.177Z,23.49
2023-07-21T13:08:46.325Z,23.55
2023-07-21T13:11:34.925Z,23.73
2023-07-21T13:14:21.885Z,23.28
2023-07-21T13:17:09.713Z,23.92
2023-07-21T13:19:58.189Z,23.98
2023-07-21T13:22:45.540Z,23.62
2023-07-21T13:25:32.656Z,24.24
2023-07-21T13:28:19.829Z,24.48
2023-07-21T13:31:07.072Z,24.42
2023-07-21T13:33:54.375Z,24.14
2023-07-21T13:36:45.407Z,23.64
2023-07-21T13:39:33.841Z,23.27
2023-07-21T13:42:21.509Z,23.02
2023-07-21T13:45:08.817Z,22.61
2023-07-21T13:47:55.958Z,22.34
2023-07-21T13:50:43.818Z,22.01
2023-07-21T13:53:31.107Z,22.12
2023-07-21T13:56:19.412Z,22.15
2023-07-21T13:59:06.874Z,22.14
2023-07-21T14:01:53.965Z,22.22
2023-07-21T14:04:44.562Z,22.17
2023-07-21T14:07:31.662Z,22.11
2023-07-21T14:10:18.493Z,22.09
2023-07-21T14:13:06.407Z,21.99
2023-07-21T14:15:53.518Z,22.01
2023-07-21T14:18:40.632Z,22.29
2023-07-21T14:21:30.751Z,22.42
2023-07-21T14:24:17.961Z,22.42
2023-07-21T14:27:05.013Z,22.41
2023-07-21T14:29:53.488Z,22.29
2023-07-21T14:32:40.545Z,22.49
2023-07-21T14:35:27.810Z,22.47
2023-07-21T14:38:16.545Z,22.55
2023-07-21T14:41:03.941Z,22.14
2023-07-21T14:43:51.336Z,22.09
2023-07-21T14:46:38.123Z,21.95
2023-07-21T14:49:25.371Z,22.12
2023-07-21T14:52:12.614Z,21.94
2023-07-21T14:55:00.180Z,21.90
2023-07-21T14:57:47.628Z,21.73
2023-07-21T15:00:34.705Z,21.69
2023-07-21T15:03:21.903Z,21.76
2023-07-21T15:06:08.832Z,21.67
2023-07-21T15:08:56.224Z,21.60
2023-07-21T15:11:43.218Z,21.54
2023-07-21T15:14:30.407Z,21.41
2023-07-21T15:17:18.522Z,21.62
2023-07-21T15:20:16.362Z,21.86
2023-07-21T15:23:03.410Z,21.98
2023-07-21T15:25:50.595Z,22.01
2023-07-21T15:28:37.344Z,22.31
2023-07-21T15:31:24.865Z,22.78
2023-07-21T15:34:13.466Z,23.32
2023-07-21T15:37:00.423Z,23.26
2023-07-21T15:39:47.711Z,23.29
2023-07-21T15:42:34.473Z,23.35
2023-07-21T15:45:21.660Z,23.52
2023-07-21T15:48:09.477Z,23.27
2023-07-21T15:50:56.641Z,23.18
2023-07-21T15:53:43.648Z,23.15
2023-07-21T15:56:31.998Z,22.96
2023-07-21T15:59:19.130Z,23.06
2023-07-21T16:02:07.019Z,23.25
2023-07-21T16:04:54.469Z,23.67
2023-07-21T16:07:42.178Z,23.20
2023-07-21T16:10:29.581Z,22.85
2023-07-21T16:13:18.333Z,22.37
2023-07-21T16:16:06.033Z,22.54
2023-07-21T16:18:52.803Z,22.57
2023-07-21T16:21:40.331Z,22.60
2023-07-21T16:24:28.920Z,22.64
2023-07-21T16:27:16.113Z,22.54
2023-07-21T16:30:02.999Z,22.23
2023-07-21T16:32:51.154Z,22.09
2023-07-21T16:35:38.055Z,21.89
2023-07-21T16:38:25.027Z,21.80
2023-07-21T16:41:13.251Z,21.66
2023-07-21T16:44:00.320Z,21.62
2023-07-21T16:46:47.782Z,21.55
2023-07-21T16:49:34.821Z,21.65
2023-07-21T16:52:23.238Z,21.68
2023-07-21T16:55:11.633Z,21.56
2023-07-21T16:57:59.008Z,21.51
2023-07-21T17:00:46.902Z,21.44
2023-07-21T17:03:34.348Z,21.41
2023-07-21T17:06:23.220Z,21.44
2023-07-21T17:09:10.599Z,21.51
2023-07-21T17:11:57.840Z,21.43
2023-07-21T17:14:46.540Z,21.40
2023-07-21T17:17:34.006Z,21.28
2023-07-21T17:20:20.857Z,21.26
2023-07-21T17:23:08.639Z,21.27
2023-07-21T17:25:55.654Z,21.33
2023-07-21T17:28:42.782Z,21.25
2023-07-21T17:31:29.925Z,21.19
2023-07-21T17:34:16.929Z,21.08
2023-07-21T17:37:04.098Z,20.97
2023-07-21T17:39:51.091Z,20.84
2023-07-21T17:42:40.426Z,20.68
2023-07-21T17:45:27.183Z,20.57
2023-07-21T17:48:15.709Z,20.71
2023-07-21T17:51:02.737Z,20.73
2023-07-21T17:53:54.899Z,20.60
2023-07-21T17:56:43.292Z,20.59
2023-07-21T17:59:31.981Z,20.41
2023-07-21T18:02:19.447Z,20.31
2023-07-21T18:05:06.829Z,20.27
2023-07-21T18:07:53.657Z,20.20
2023-07-21T18:10:40.660Z,20.16
2023-07-21T18:13:27.911Z,20.16
2023-07-21T18:16:16.944Z,20.17
2023-07-21T18:19:04.855Z,20.07
2023-07-21T18:21:51.963Z,19.97
2023-07-21T18:24:41.945Z,19.87
2023-07-21T18:27:29.285Z,19.87
2023-07-21T18:30:16.466Z,19.80
2023-07-21T18:33:05.163Z,19.82
2023-07-21T18:35:52.571Z,19.73
2023-07-21T18:38:43.562Z,19.90
2023-07-21T18:41:30.938Z,19.65
2023-07-21T18:44:19.738Z,19.63
2023-07-21T18:47:06.824Z,19.61
2023-07-21T18:49:54.074Z,19.50
2023-07-21T18:52:41.322Z,19.39
2023-07-21T18:55:28.765Z,19.33
2023-07-21T18:58:16.234Z,19.23
2023-07-21T19:01:03.317Z,19.17
2023-07-21T19:03:53.506Z,19.07
2023-07-21T19:06:40.352Z,18.88
2023-07-21T19:09:32.782Z,19.13
2023-07-21T19:12:22.527Z,19.08
2023-07-21T19:15:11.291Z,18.90
2023-07-21T19:17:58.358Z,19.03
2023-07-21T19:20:45.482Z,18.95
2023-07-21T19:23:40.682Z,19.07
2023-07-21T19:26:27.694Z,18.82
2023-07-21T19:29:14.823Z,18.98
2023-07-21T19:32:02.082Z,18.89
2023-07-21T19:34:49.374Z,18.84
2023-07-21T19:37:41.858Z,18.77
2023-07-21T19:40:29.837Z,18.76
2023-07-21T19:43:16.957Z,18.80
2023-07-21T19:46:04.855Z,18.55
2023-07-21T19:48:52.030Z,18.48
2023-07-21T19:51:41.806Z,18.31
2023-07-21T19:54:29.970Z,18.32
2023-07-21T19:57:16.950Z,18.25
2023-07-21T20:00:08.179Z,17.98
2023-07-21T20:02:55.236Z,17.90
2023-07-21T20:05:42.713Z,17.82
2023-07-21T20:08:29.742Z,17.90
2023-07-21T20:11:17.817Z,17.96
2023-07-21T20:14:05.199Z,17.76
2023-07-21T20:16:52.427Z,17.89
2023-07-21T20:19:41.526Z,18.16
2023-07-21T20:22:28.551Z,17.58
2023-07-21T20:25:15.255Z,17.75
2023-07-21T20:28:04.361Z,17.62
2023-07-21T20:30:52.026Z,17.62
2023-07-21T20:33:39.433Z,17.62
2023-07-21T20:36:26.982Z,17.76
2023-07-21T20:39:14.488Z,17.91
2023-07-21T20:42:02.122Z,17.91
2023-07-21T20:44:52.094Z,18.02
2023-07-21T20:47:38.933Z,17.67
2023-07-21T20:50:30.133Z,17.81
2023-07-21T20:53:19.467Z,18.16
2023-07-21T20:56:08.337Z,18.26
2023-07-21T20:58:55.370Z,18.79
2023-07-21T21:01:43.812Z,18.58
2023-07-21T21:04:31.592Z,18.52
2023-07-21T21:07:18.733Z,18.26
2023-07-21T21:10:07.782Z,18.08
2023-07-21T21:12:54.812Z,18.15
2023-07-21T21:15:46.194Z,18.18
2023-07-21T21:18:35.722Z,18.07
2023-07-21T21:21:22.722Z,18.26
2023-07-21T21:24:09.619Z,17.98
2023-07-21T21:26:56.839Z,17.62
2023-07-21T21:29:46.910Z,17.63
2023-07-21T21:32:33.823Z,18.21
2023-07-21T21:35:21.060Z,17.66
2023-07-21T21:38:08.548Z,18.37
2023-07-21T21:40:56.322Z,18.71
2023-07-21T21:43:43.516Z,18.61
2023-07-21T21:46:30.810Z,18.33
2023-07-21T21:49:17.922Z,18.18
2023-07-21T21:52:05.461Z,18.59
2023-07-21T21:54:52.801Z,18.38
2023-07-21T21:57:42.659Z,17.87
2023-07-21T22:00:31.136Z,18.38
2023-07-21T22:03:18.044Z,18.31
2023-07-21T22:06:05.070Z,18.79
2023-07-21T22:08:52.143Z,19.01
2023-07-21T22:11:39.693Z,18.89
2023-07-21T22:14:27.891Z,18.70
2023-07-21T22:17:15.334Z,18.53
2023-07-21T22:20:10.988Z,18.38
2023-07-21T22:22:59.924Z,18.88
2023-07-21T22:25:48.025Z,18.32
2023-07-21T22:28:35.169Z,17.86
2023-07-21T22:31:22.709Z,18.36
2023-07-21T22:34:10.932Z,18.35
2023-07-21T22:37:00.476Z,18.02
2023-07-21T22:39:47.451Z,17.99
2023-07-21T22:42:34.565Z,17.97
2023-07-21T22:45:21.693Z,18.23
2023-07-21T22:48:08.529Z,18.05
2023-07-21T22:50:55.750Z,18.56
2023-07-21T22:53:42.697Z,18.51
2023-07-21T22:56:30.633Z,17.97
2023-07-21T22:59:17.660Z,18.21
2023-07-21T23:02:04.665Z,17.77
2023-07-21T23:04:52.288Z,17.73
2023-07-21T23:07:39.667Z,18.43
2023-07-21T23:10:26.498Z,18.39
2023-07-21T23:13:14.042Z,18.29
2023-07-21T23:16:01.155Z,18.09
2023-07-21T23:18:47.953Z,18.37
2023-07-21T23:21:35.031Z,18.62
2023-07-21T23:24:22.664Z,18.37
2023-07-21T23:27:10.402Z,18.11
2023-07-21T23:29:58.940Z,18.34
2023-07-21T23:32:47.150Z,17.83
2023-07-21T23:35:34.170Z,18.16
2023-07-21T23:38:23.840Z,18.31
2023-07-21T23:41:11.114Z,18.18
2023-07-21T23:43:58.140Z,18.26
2023-07-21T23:46:44.901Z,18.37
2023-07-21T23:49:31.795Z,18.49
2023-07-21T23:52:18.996Z,18.46
2023-07-21T23:55:06.163Z,18.59
2023-07-21T23:57:52.986Z,18.47
